sensor_id;sensor_type;location;lat;lon;timestamp;P1;durP1;ratioP1;P2;durP2;ratioP2
24751;SDS011;27246;52.376;4.628;2022-08-21T00:04:03;7.72;;;3.33;;
24751;SDS011;27246;52.376;4.628;2022-08-21T00:09:07;7.32;;;3.53;;
24751;SDS011;27246;52.376;4.628;2022-08-21T00:14:10;6.50;;;3.28;;
24751;SDS011;27246;52.376;4.628;2022-08-21T00:19:12;5.93;;;3.45;;
24751;SDS011;27246;52.376;4.628;2022-08-21T00:24:14;6.10;;;3.33;;
24751;SDS011;27246;52.376;4.628;2022-08-21T00:29:15;5.18;;;3.17;;
24751;SDS011;27246;52.376;4.628;2022-08-21T00:34:17;7.47;;;3.05;;
24751;SDS011;27246;52.376;4.628;2022-08-21T00:39:19;6.28;;;3.42;;
24751;SDS011;27246;52.376;4.628;2022-08-21T00:44:21;6.68;;;3.15;;
24751;SDS011;27246;52.376;4.628;2022-08-21T00:49:22;7.20;;;3.35;;
24751;SDS011;27246;52.376;4.628;2022-08-21T00:54:25;5.10;;;3.33;;
24751;SDS011;27246;52.376;4.628;2022-08-21T00:59:29;6.60;;;3.40;;
24751;SDS011;27246;52.376;4.628;2022-08-21T01:04:36;8.48;;;3.55;;
24751;SDS011;27246;52.376;4.628;2022-08-21T01:09:38;7.43;;;3.97;;
24751;SDS011;27246;52.376;4.628;2022-08-21T01:14:41;5.88;;;3.75;;
24751;SDS011;27246;52.376;4.628;2022-08-21T01:19:44;7.30;;;3.88;;
24751;SDS011;27246;52.376;4.628;2022-08-21T01:24:45;7.88;;;3.63;;
24751;SDS011;27246;52.376;4.628;2022-08-21T01:29:51;6.60;;;3.85;;
24751;SDS011;27246;52.376;4.628;2022-08-21T01:34:58;11.88;;;4.38;;
24751;SDS011;27246;52.376;4.628;2022-08-21T01:40:00;6.30;;;3.40;;
24751;SDS011;27246;52.376;4.628;2022-08-21T01:45:02;7.65;;;3.83;;
24751;SDS011;27246;52.376;4.628;2022-08-21T01:50:06;6.35;;;5.13;;
24751;SDS011;27246;52.376;4.628;2022-08-21T01:55:12;6.00;;;3.67;;
24751;SDS011;27246;52.376;4.628;2022-08-21T02:00:16;8.20;;;4.57;;
24751;SDS011;27246;52.376;4.628;2022-08-21T02:05:20;4.68;;;2.78;;
24751;SDS011;27246;52.376;4.628;2022-08-21T02:10:23;7.13;;;3.30;;
24751;SDS011;27246;52.376;4.628;2022-08-21T02:15:28;3.92;;;3.35;;
24751;SDS011;27246;52.376;4.628;2022-08-21T02:20:36;9.00;;;3.72;;
24751;SDS011;27246;52.376;4.628;2022-08-21T02:25:40;6.03;;;2.90;;
24751;SDS011;27246;52.376;4.628;2022-08-21T02:30:43;4.82;;;2.92;;
24751;SDS011;27246;52.376;4.628;2022-08-21T02:35:47;9.18;;;3.33;;
24751;SDS011;27246;52.376;4.628;2022-08-21T02:40:50;7.50;;;3.55;;
24751;SDS011;27246;52.376;4.628;2022-08-21T02:45:53;6.57;;;3.55;;
24751;SDS011;27246;52.376;4.628;2022-08-21T02:50:59;9.18;;;2.97;;
24751;SDS011;27246;52.376;4.628;2022-08-21T02:56:05;6.28;;;2.72;;
24751;SDS011;27246;52.376;4.628;2022-08-21T03:01:08;6.35;;;3.17;;
24751;SDS011;27246;52.376;4.628;2022-08-21T03:06:12;6.00;;;3.00;;
24751;SDS011;27246;52.376;4.628;2022-08-21T03:11:16;8.43;;;3.00;;
24751;SDS011;27246;52.376;4.628;2022-08-21T03:16:18;6.82;;;2.90;;
24751;SDS011;27246;52.376;4.628;2022-08-21T03:21:22;7.13;;;3.28;;
24751;SDS011;27246;52.376;4.628;2022-08-21T03:26:23;5.57;;;2.85;;
24751;SDS011;27246;52.376;4.628;2022-08-21T03:31:28;7.00;;;3.35;;
24751;SDS011;27246;52.376;4.628;2022-08-21T03:36:32;6.20;;;3.08;;
24751;SDS011;27246;52.376;4.628;2022-08-21T03:41:33;4.80;;;2.55;;
24751;SDS011;27246;52.376;4.628;2022-08-21T03:46:35;6.55;;;2.55;;
24751;SDS011;27246;52.376;4.628;2022-08-21T03:51:37;6.68;;;2.65;;
24751;SDS011;27246;52.376;4.628;2022-08-21T03:56:38;6.18;;;2.85;;
24751;SDS011;27246;52.376;4.628;2022-08-21T04:01:50;10.13;;;3.42;;
24751;SDS011;27246;52.376;4.628;2022-08-21T04:06:53;9.18;;;3.17;;
24751;SDS011;27246;52.376;4.628;2022-08-21T04:11:55;5.88;;;3.20;;
24751;SDS011;27246;52.376;4.628;2022-08-21T04:16:57;6.82;;;3.40;;
24751;SDS011;27246;52.376;4.628;2022-08-21T04:21:59;6.80;;;3.22;;
24751;SDS011;27246;52.376;4.628;2022-08-21T04:27:00;5.25;;;3.25;;
24751;SDS011;27246;52.376;4.628;2022-08-21T04:32:02;6.28;;;2.85;;
24751;SDS011;27246;52.376;4.628;2022-08-21T04:37:04;4.95;;;3.40;;
24751;SDS011;27246;52.376;4.628;2022-08-21T04:42:06;6.07;;;3.28;;
24751;SDS011;27246;52.376;4.628;2022-08-21T04:47:08;7.00;;;4.00;;
24751;SDS011;27246;52.376;4.628;2022-08-21T04:52:09;7.28;;;3.60;;
24751;SDS011;27246;52.376;4.628;2022-08-21T04:57:14;6.15;;;3.70;;
24751;SDS011;27246;52.376;4.628;2022-08-21T05:02:17;7.20;;;3.58;;
24751;SDS011;27246;52.376;4.628;2022-08-21T05:07:20;4.60;;;3.10;;
24751;SDS011;27246;52.376;4.628;2022-08-21T05:12:43;8.30;;;3.13;;
24751;SDS011;27246;52.376;4.628;2022-08-21T05:17:46;10.18;;;3.63;;
24751;SDS011;27246;52.376;4.628;2022-08-21T05:23:06;4.95;;;2.90;;
24751;SDS011;27246;52.376;4.628;2022-08-21T05:28:09;6.30;;;2.88;;
24751;SDS011;27246;52.376;4.628;2022-08-21T05:33:11;7.00;;;3.88;;
24751;SDS011;27246;52.376;4.628;2022-08-21T05:38:13;5.97;;;3.05;;
24751;SDS011;27246;52.376;4.628;2022-08-21T05:43:18;7.22;;;3.53;;
24751;SDS011;27246;52.376;4.628;2022-08-21T05:48:22;9.70;;;3.92;;
24751;SDS011;27246;52.376;4.628;2022-08-21T05:53:25;9.35;;;3.58;;
24751;SDS011;27246;52.376;4.628;2022-08-21T05:58:26;7.72;;;3.25;;
24751;SDS011;27246;52.376;4.628;2022-08-21T06:03:30;8.40;;;3.10;;
24751;SDS011;27246;52.376;4.628;2022-08-21T06:08:35;11.93;;;3.28;;
24751;SDS011;27246;52.376;4.628;2022-08-21T06:13:37;7.88;;;3.85;;
24751;SDS011;27246;52.376;4.628;2022-08-21T06:18:40;7.05;;;3.88;;
24751;SDS011;27246;52.376;4.628;2022-08-21T06:23:42;7.70;;;3.15;;
24751;SDS011;27246;52.376;4.628;2022-08-21T06:28:44;9.18;;;4.03;;
24751;SDS011;27246;52.376;4.628;2022-08-21T06:33:46;12.52;;;4.45;;
24751;SDS011;27246;52.376;4.628;2022-08-21T06:38:48;12.15;;;4.03;;
24751;SDS011;27246;52.376;4.628;2022-08-21T06:43:52;10.20;;;3.63;;
24751;SDS011;27246;52.376;4.628;2022-08-21T06:48:56;11.07;;;3.72;;
24751;SDS011;27246;52.376;4.628;2022-08-21T06:53:58;9.80;;;3.85;;
24751;SDS011;27246;52.376;4.628;2022-08-21T06:59:00;11.85;;;4.07;;
24751;SDS011;27246;52.376;4.628;2022-08-21T07:04:02;10.90;;;4.55;;
24751;SDS011;27246;52.376;4.628;2022-08-21T07:09:04;8.82;;;4.45;;
24751;SDS011;27246;52.376;4.628;2022-08-21T07:14:05;13.10;;;4.10;;
24751;SDS011;27246;52.376;4.628;2022-08-21T07:19:07;9.43;;;4.10;;
24751;SDS011;27246;52.376;4.628;2022-08-21T07:24:09;7.57;;;4.03;;
24751;SDS011;27246;52.376;4.628;2022-08-21T07:29:12;11.52;;;4.15;;
24751;SDS011;27246;52.376;4.628;2022-08-21T07:34:15;11.88;;;3.85;;
24751;SDS011;27246;52.376;4.628;2022-08-21T07:39:20;8.45;;;3.95;;
24751;SDS011;27246;52.376;4.628;2022-08-21T07:44:22;7.97;;;3.63;;
24751;SDS011;27246;52.376;4.628;2022-08-21T07:49:24;9.32;;;3.42;;
24751;SDS011;27246;52.376;4.628;2022-08-21T07:54:25;11.73;;;3.70;;
24751;SDS011;27246;52.376;4.628;2022-08-21T07:59:34;10.98;;;4.13;;
24751;SDS011;27246;52.376;4.628;2022-08-21T08:04:36;8.77;;;3.85;;
24751;SDS011;27246;52.376;4.628;2022-08-21T08:09:50;9.80;;;4.13;;
24751;SDS011;27246;52.376;4.628;2022-08-21T08:14:52;10.20;;;2.90;;
24751;SDS011;27246;52.376;4.628;2022-08-21T08:19:54;9.15;;;2.70;;
24751;SDS011;27246;52.376;4.628;2022-08-21T08:24:56;12.35;;;2.95;;
24751;SDS011;27246;52.376;4.628;2022-08-21T08:29:58;9.38;;;2.88;;
24751;SDS011;27246;52.376;4.628;2022-08-21T08:35:01;10.13;;;3.20;;
24751;SDS011;27246;52.376;4.628;2022-08-21T08:40:04;13.35;;;3.08;;
24751;SDS011;27246;52.376;4.628;2022-08-21T08:45:15;5.97;;;2.63;;
24751;SDS011;27246;52.376;4.628;2022-08-21T08:50:21;10.05;;;2.53;;
24751;SDS011;27246;52.376;4.628;2022-08-21T08:55:33;8.60;;;2.63;;
24751;SDS011;27246;52.376;4.628;2022-08-21T09:00:37;11.43;;;3.15;;
24751;SDS011;27246;52.376;4.628;2022-08-21T09:05:46;7.25;;;2.67;;
24751;SDS011;27246;52.376;4.628;2022-08-21T09:16:05;4.55;;;1.77;;
24751;SDS011;27246;52.376;4.628;2022-08-21T09:26:47;8.30;;;2.35;;
24751;SDS011;27246;52.376;4.628;2022-08-21T09:31:58;6.15;;;2.00;;
24751;SDS011;27246;52.376;4.628;2022-08-21T09:36:59;7.13;;;1.90;;
24751;SDS011;27246;52.376;4.628;2022-08-21T09:42:03;10.00;;;2.15;;
24751;SDS011;27246;52.376;4.628;2022-08-21T09:47:07;8.43;;;2.00;;
24751;SDS011;27246;52.376;4.628;2022-08-21T09:52:29;5.80;;;2.00;;
24751;SDS011;27246;52.376;4.628;2022-08-21T09:57:30;6.30;;;2.20;;
24751;SDS011;27246;52.376;4.628;2022-08-21T10:02:50;4.72;;;1.67;;
24751;SDS011;27246;52.376;4.628;2022-08-21T10:07:52;4.25;;;1.58;;
24751;SDS011;27246;52.376;4.628;2022-08-21T10:18:04;7.47;;;1.88;;
24751;SDS011;27246;52.376;4.628;2022-08-21T10:34:10;4.00;;;1.58;;
24751;SDS011;27246;52.376;4.628;2022-08-21T10:39:31;4.15;;;1.48;;
24751;SDS011;27246;52.376;4.628;2022-08-21T10:55:16;6.20;;;1.58;;
24751;SDS011;27246;52.376;4.628;2022-08-21T11:00:22;3.83;;;1.38;;
24751;SDS011;27246;52.376;4.628;2022-08-21T11:05:33;5.35;;;1.50;;
24751;SDS011;27246;52.376;4.628;2022-08-21T11:16:02;6.32;;;1.75;;
24751;SDS011;27246;52.376;4.628;2022-08-21T11:26:59;4.93;;;1.88;;
24751;SDS011;27246;52.376;4.628;2022-08-21T11:42:44;6.88;;;2.05;;
24751;SDS011;27246;52.376;4.628;2022-08-21T11:48:10;5.93;;;1.40;;
24751;SDS011;27246;52.376;4.628;2022-08-21T11:59:31;2.92;;;1.60;;
24751;SDS011;27246;52.376;4.628;2022-08-21T12:04:42;3.10;;;1.52;;
24751;SDS011;27246;52.376;4.628;2022-08-21T12:09:52;7.15;;;1.75;;
24751;SDS011;27246;52.376;4.628;2022-08-21T12:25:37;7.65;;;2.33;;
24751;SDS011;27246;52.376;4.628;2022-08-21T12:30:44;8.57;;;2.03;;
24751;SDS011;27246;52.376;4.628;2022-08-21T12:35:46;4.97;;;1.83;;
24751;SDS011;27246;52.376;4.628;2022-08-21T12:46:02;8.23;;;2.17;;
24751;SDS011;27246;52.376;4.628;2022-08-21T12:56:14;3.67;;;1.70;;
24751;SDS011;27246;52.376;4.628;2022-08-21T13:01:32;9.48;;;2.22;;
24751;SDS011;27246;52.376;4.628;2022-08-21T13:06:43;7.20;;;2.35;;
24751;SDS011;27246;52.376;4.628;2022-08-21T13:11:47;5.03;;;1.67;;
24751;SDS011;27246;52.376;4.628;2022-08-21T13:16:56;6.13;;;1.65;;
24751;SDS011;27246;52.376;4.628;2022-08-21T13:21:59;5.95;;;1.88;;
24751;SDS011;27246;52.376;4.628;2022-08-21T13:27:15;4.80;;;2.28;;
24751;SDS011;27246;52.376;4.628;2022-08-21T13:32:22;5.22;;;1.58;;
24751;SDS011;27246;52.376;4.628;2022-08-21T13:37:27;5.88;;;2.17;;
24751;SDS011;27246;52.376;4.628;2022-08-21T13:42:31;6.15;;;2.08;;
24751;SDS011;27246;52.376;4.628;2022-08-21T13:47:32;6.82;;;1.98;;
24751;SDS011;27246;52.376;4.628;2022-08-21T13:52:34;6.40;;;1.95;;
24751;SDS011;27246;52.376;4.628;2022-08-21T13:58:01;5.00;;;2.03;;
24751;SDS011;27246;52.376;4.628;2022-08-21T14:03:08;5.05;;;2.00;;
24751;SDS011;27246;52.376;4.628;2022-08-21T14:13:42;8.05;;;2.60;;
24751;SDS011;27246;52.376;4.628;2022-08-21T14:24:11;5.38;;;2.45;;
24751;SDS011;27246;52.376;4.628;2022-08-21T14:29:15;4.70;;;1.90;;
24751;SDS011;27246;52.376;4.628;2022-08-21T14:34:19;6.18;;;2.20;;
24751;SDS011;27246;52.376;4.628;2022-08-21T14:39:22;6.57;;;1.98;;
24751;SDS011;27246;52.376;4.628;2022-08-21T14:44:24;4.75;;;2.10;;
24751;SDS011;27246;52.376;4.628;2022-08-21T14:49:27;3.28;;;1.55;;
24751;SDS011;27246;52.376;4.628;2022-08-21T14:54:30;4.90;;;1.60;;
24751;SDS011;27246;52.376;4.628;2022-08-21T14:59:33;3.38;;;1.75;;
24751;SDS011;27246;52.376;4.628;2022-08-21T15:04:36;3.65;;;1.30;;
24751;SDS011;27246;52.376;4.628;2022-08-21T15:09:38;4.40;;;1.70;;
24751;SDS011;27246;52.376;4.628;2022-08-21T15:14:40;7.30;;;1.77;;
24751;SDS011;27246;52.376;4.628;2022-08-21T15:19:42;2.15;;;1.35;;
24751;SDS011;27246;52.376;4.628;2022-08-21T15:24:44;5.88;;;1.55;;
24751;SDS011;27246;52.376;4.628;2022-08-21T15:29:45;6.15;;;1.83;;
24751;SDS011;27246;52.376;4.628;2022-08-21T15:34:47;3.28;;;1.50;;
24751;SDS011;27246;52.376;4.628;2022-08-21T15:39:49;2.17;;;1.15;;
24751;SDS011;27246;52.376;4.628;2022-08-21T15:44:54;4.03;;;1.60;;
24751;SDS011;27246;52.376;4.628;2022-08-21T15:55:25;6.38;;;1.90;;
24751;SDS011;27246;52.376;4.628;2022-08-21T16:00:26;9.77;;;2.05;;
24751;SDS011;27246;52.376;4.628;2022-08-21T16:05:29;5.30;;;2.40;;
24751;SDS011;27246;52.376;4.628;2022-08-21T16:10:33;3.58;;;1.60;;
24751;SDS011;27246;52.376;4.628;2022-08-21T16:15:36;6.57;;;1.70;;
24751;SDS011;27246;52.376;4.628;2022-08-21T16:20:38;3.22;;;1.98;;
24751;SDS011;27246;52.376;4.628;2022-08-21T16:25:40;4.75;;;1.50;;
24751;SDS011;27246;52.376;4.628;2022-08-21T16:30:45;5.97;;;1.70;;
24751;SDS011;27246;52.376;4.628;2022-08-21T16:35:50;5.32;;;1.50;;
24751;SDS011;27246;52.376;4.628;2022-08-21T16:40:52;3.45;;;2.10;;
24751;SDS011;27246;52.376;4.628;2022-08-21T16:45:54;5.50;;;1.75;;
24751;SDS011;27246;52.376;4.628;2022-08-21T16:50:57;5.13;;;2.10;;
24751;SDS011;27246;52.376;4.628;2022-08-21T16:55:59;4.65;;;1.90;;
24751;SDS011;27246;52.376;4.628;2022-08-21T17:01:03;6.68;;;2.70;;
24751;SDS011;27246;52.376;4.628;2022-08-21T17:06:09;9.75;;;4.18;;
24751;SDS011;27246;52.376;4.628;2022-08-21T17:11:21;9.38;;;2.25;;
24751;SDS011;27246;52.376;4.628;2022-08-21T17:16:40;9.80;;;3.50;;
24751;SDS011;27246;52.376;4.628;2022-08-21T17:21:44;8.93;;;2.55;;
24751;SDS011;27246;52.376;4.628;2022-08-21T17:26:46;9.68;;;4.60;;
24751;SDS011;27246;52.376;4.628;2022-08-21T17:31:49;8.13;;;2.90;;
24751;SDS011;27246;52.376;4.628;2022-08-21T17:36:51;5.55;;;2.03;;
24751;SDS011;27246;52.376;4.628;2022-08-21T17:41:59;3.17;;;1.90;;
24751;SDS011;27246;52.376;4.628;2022-08-21T17:47:04;4.43;;;1.80;;
24751;SDS011;27246;52.376;4.628;2022-08-21T17:52:08;7.53;;;1.90;;
24751;SDS011;27246;52.376;4.628;2022-08-21T17:57:17;4.75;;;2.60;;
24751;SDS011;27246;52.376;4.628;2022-08-21T18:02:23;4.03;;;1.70;;
24751;SDS011;27246;52.376;4.628;2022-08-21T18:07:25;3.58;;;1.65;;
24751;SDS011;27246;52.376;4.628;2022-08-21T18:12:33;4.82;;;1.55;;
24751;SDS011;27246;52.376;4.628;2022-08-21T18:17:38;3.25;;;1.02;;
24751;SDS011;27246;52.376;4.628;2022-08-21T18:22:42;6.10;;;2.55;;
24751;SDS011;27246;52.376;4.628;2022-08-21T18:27:44;4.72;;;1.67;;
24751;SDS011;27246;52.376;4.628;2022-08-21T18:32:48;4.70;;;2.22;;
24751;SDS011;27246;52.376;4.628;2022-08-21T18:37:52;3.50;;;1.45;;
24751;SDS011;27246;52.376;4.628;2022-08-21T18:42:55;3.63;;;1.60;;
24751;SDS011;27246;52.376;4.628;2022-08-21T18:47:57;5.45;;;1.70;;
24751;SDS011;27246;52.376;4.628;2022-08-21T18:53:05;6.00;;;1.75;;
24751;SDS011;27246;52.376;4.628;2022-08-21T18:58:27;5.20;;;1.67;;
24751;SDS011;27246;52.376;4.628;2022-08-21T19:04:47;4.38;;;1.90;;
24751;SDS011;27246;52.376;4.628;2022-08-21T19:16:23;6.45;;;1.77;;
24751;SDS011;27246;52.376;4.628;2022-08-21T19:21:35;4.00;;;1.70;;
24751;SDS011;27246;52.376;4.628;2022-08-21T19:26:39;5.78;;;2.03;;
24751;SDS011;27246;52.376;4.628;2022-08-21T19:31:41;5.97;;;1.98;;
24751;SDS011;27246;52.376;4.628;2022-08-21T19:36:45;5.97;;;2.30;;
24751;SDS011;27246;52.376;4.628;2022-08-21T19:48:30;3.78;;;1.95;;
24751;SDS011;27246;52.376;4.628;2022-08-21T19:53:34;5.25;;;2.03;;
24751;SDS011;27246;52.376;4.628;2022-08-21T19:58:40;5.82;;;2.13;;
24751;SDS011;27246;52.376;4.628;2022-08-21T20:03:44;4.30;;;2.38;;
24751;SDS011;27246;52.376;4.628;2022-08-21T20:09:07;10.30;;;4.55;;
24751;SDS011;27246;52.376;4.628;2022-08-21T20:14:11;4.28;;;2.42;;
24751;SDS011;27246;52.376;4.628;2022-08-21T20:19:15;5.13;;;2.72;;
24751;SDS011;27246;52.376;4.628;2022-08-21T20:24:19;9.30;;;2.88;;
24751;SDS011;27246;52.376;4.628;2022-08-21T20:29:20;6.07;;;3.25;;
24751;SDS011;27246;52.376;4.628;2022-08-21T20:34:39;6.30;;;2.83;;
24751;SDS011;27246;52.376;4.628;2022-08-21T20:39:45;6.22;;;2.70;;
24751;SDS011;27246;52.376;4.628;2022-08-21T20:44:47;6.53;;;3.15;;
24751;SDS011;27246;52.376;4.628;2022-08-21T20:49:51;6.55;;;2.92;;
24751;SDS011;27246;52.376;4.628;2022-08-21T20:55:18;5.05;;;2.80;;
24751;SDS011;27246;52.376;4.628;2022-08-21T21:00:45;7.70;;;3.13;;
24751;SDS011;27246;52.376;4.628;2022-08-21T21:05:56;5.88;;;2.75;;
24751;SDS011;27246;52.376;4.628;2022-08-21T21:11:04;7.07;;;2.75;;
24751;SDS011;27246;52.376;4.628;2022-08-21T21:16:16;6.93;;;3.25;;
24751;SDS011;27246;52.376;4.628;2022-08-21T21:26:37;4.95;;;3.45;;
24751;SDS011;27246;52.376;4.628;2022-08-21T21:32:04;5.88;;;3.25;;
24751;SDS011;27246;52.376;4.628;2022-08-21T21:37:07;4.68;;;3.13;;
24751;SDS011;27246;52.376;4.628;2022-08-21T21:48:12;5.25;;;3.28;;
24751;SDS011;27246;52.376;4.628;2022-08-21T21:53:48;9.63;;;3.38;;
24751;SDS011;27246;52.376;4.628;2022-08-21T22:04:42;10.02;;;3.85;;
24751;SDS011;27246;52.376;4.628;2022-08-21T22:09:53;8.07;;;3.13;;
24751;SDS011;27246;52.376;4.628;2022-08-21T22:15:06;6.03;;;2.80;;
24751;SDS011;27246;52.376;4.628;2022-08-21T22:20:28;8.05;;;2.63;;
24751;SDS011;27246;52.376;4.628;2022-08-21T22:25:39;6.30;;;3.45;;
24751;SDS011;27246;52.376;4.628;2022-08-21T22:30:48;5.47;;;2.47;;
24751;SDS011;27246;52.376;4.628;2022-08-21T22:35:54;9.57;;;2.92;;
24751;SDS011;27246;52.376;4.628;2022-08-21T22:41:09;5.57;;;2.38;;
24751;SDS011;27246;52.376;4.628;2022-08-21T22:51:45;7.25;;;3.00;;
24751;SDS011;27246;52.376;4.628;2022-08-21T22:56:59;6.78;;;2.72;;
24751;SDS011;27246;52.376;4.628;2022-08-21T23:02:07;7.32;;;3.45;;
24751;SDS011;27246;52.376;4.628;2022-08-21T23:07:56;10.48;;;4.82;;
24751;SDS011;27246;52.376;4.628;2022-08-21T23:12:52;8.40;;;3.20;;
24751;SDS011;27246;52.376;4.628;2022-08-21T23:18:14;7.00;;;2.53;;
24751;SDS011;27246;52.376;4.628;2022-08-21T23:23:27;8.43;;;3.58;;
24751;SDS011;27246;52.376;4.628;2022-08-21T23:33:58;7.63;;;2.72;;
24751;SDS011;27246;52.376;4.628;2022-08-21T23:49:48;7.47;;;3.22;;
